Time;durP1;ratioP1;P1;durP2;ratioP2;P2;SDS_P1;SDS_P2;PMS_P1;PMS_P2;Temp;Humidity;BMP_temperature;BMP_pressure;BME280_temperature;BME280_humidity;BME280_pressure;Samples;Min_cycle;Max_cycle;Signal;HPM_P1;HPM_P2
2022/12/03 00:01:00;;;;;;;42.93;19.60;;;3.00;99.90;;;;;;5109232;27;20066;-71
2022/12/03 00:03:27;;;;;;;40.83;19.73;;;2.90;99.90;;;;;;5114407;27;20043;-71
2022/12/03 00:05:53;;;;;;;34.90;18.93;;;2.90;99.90;;;;;;5093416;28;20051;-71
2022/12/03 00:08:19;;;;;;;42.20;19.60;;;2.90;99.90;;;;;;5115831;27;20548;-70
2022/12/03 00:10:45;;;;;;;38.87;19.83;;;3.00;99.90;;;;;;5113211;27;20076;-71
2022/12/03 00:13:10;;;;;;;37.30;19.33;;;3.00;99.90;;;;;;5079298;27;20192;-71
2022/12/03 00:15:36;;;;;;;41.00;20.17;;;3.00;99.90;;;;;;5111254;27;20055;-71
2022/12/03 00:18:02;;;;;;;40.00;19.27;;;3.00;99.90;;;;;;5107964;27;20493;-71
2022/12/03 00:20:28;;;;;;;41.80;18.60;;;3.00;99.90;;;;;;5112515;27;20135;-71
2022/12/03 00:22:53;;;;;;;38.43;19.17;;;3.00;99.90;;;;;;5110433;27;20040;-70
2022/12/03 00:25:19;;;;;;;40.73;19.97;;;3.10;99.90;;;;;;5080112;28;20090;-70
2022/12/03 00:27:45;;;;;;;41.23;19.80;;;3.00;99.90;;;;;;5108830;27;20050;-70
2022/12/03 00:30:11;;;;;;;38.93;19.30;;;3.10;99.90;;;;;;5109395;27;20094;-70
2022/12/03 00:32:37;;;;;;;36.13;19.13;;;3.10;99.90;;;;;;5096713;28;20453;-71
2022/12/03 00:35:03;;;;;;;40.57;19.83;;;3.10;99.90;;;;;;5112098;27;20096;-71
2022/12/03 00:37:28;;;;;;;38.67;19.27;;;3.10;99.90;;;;;;5112904;27;20047;-71
2022/12/03 00:39:54;;;;;;;37.97;18.73;;;3.20;99.90;;;;;;5112880;27;20051;-71
2022/12/03 00:42:20;;;;;;;36.63;19.20;;;3.20;99.90;;;;;;5094635;27;20214;-70
2022/12/03 00:44:45;;;;;;;38.57;19.80;;;3.30;99.90;;;;;;5094903;28;20112;-71
2022/12/03 00:47:11;;;;;;;38.37;19.43;;;3.30;99.90;;;;;;5092694;28;20039;-71
2022/12/03 00:49:37;;;;;;;37.60;18.90;;;3.40;99.90;;;;;;5094910;28;20052;-71
2022/12/03 00:52:03;;;;;;;36.70;18.87;;;3.40;99.90;;;;;;5115805;27;20387;-71
2022/12/03 00:54:29;;;;;;;32.50;18.43;;;3.40;99.90;;;;;;5094666;28;20036;-71
2022/12/03 00:56:54;;;;;;;38.20;19.03;;;3.40;99.90;;;;;;5094014;27;20130;-71
2022/12/03 00:59:20;;;;;;;36.63;18.57;;;3.30;99.90;;;;;;5116539;27;20056;-71
2022/12/03 01:01:46;;;;;;;38.33;19.87;;;3.30;99.90;;;;;;5109336;27;20068;-71
2022/12/03 01:04:11;;;;;;;35.00;18.07;;;3.30;99.90;;;;;;5095473;27;20039;-71
2022/12/03 01:06:37;;;;;;;37.93;19.03;;;3.30;99.90;;;;;;5093400;28;20089;-71
2022/12/03 01:09:03;;;;;;;37.07;19.13;;;3.30;99.90;;;;;;5108789;27;20052;-71
2022/12/03 01:11:38;;;;;;;35.73;18.50;;;3.30;99.90;;;;;;5079268;27;20055;-70
2022/12/03 01:14:10;;;;;;;36.63;18.93;;;3.30;99.90;;;;;;5110343;27;20043;-70
2022/12/03 01:16:36;;;;;;;36.53;18.58;;;3.30;99.90;;;;;;5111005;27;20043;-70
2022/12/03 01:19:02;;;;;;;37.63;19.27;;;3.30;99.90;;;;;;5108681;27;20051;-70
2022/12/03 01:21:28;;;;;;;35.97;18.73;;;3.30;99.90;;;;;;5116249;27;20031;-71
2022/12/03 01:23:54;;;;;;;33.03;18.60;;;3.30;99.90;;;;;;5114407;27;20096;-70
2022/12/03 01:26:20;;;;;;;35.90;19.10;;;3.30;99.90;;;;;;5108555;27;20050;-70
2022/12/03 01:28:45;;;;;;;38.13;19.40;;;3.40;99.90;;;;;;5094476;28;20481;-71
2022/12/03 01:33:55;;;;;;;33.97;18.03;;;3.40;99.90;;;;;;5112255;27;20039;-71
2022/12/03 01:36:21;;;;;;;35.60;19.27;;;3.40;99.90;;;;;;5110232;27;20048;-71
2022/12/03 01:38:47;;;;;;;33.27;17.73;;;3.40;99.90;;;;;;5078796;27;20039;-71
2022/12/03 01:41:15;;;;;;;32.97;17.60;;;3.40;99.90;;;;;;5107675;27;20039;-71
2022/12/03 01:43:42;;;;;;;34.50;18.40;;;3.40;99.90;;;;;;5112244;27;20051;-71
2022/12/03 01:46:11;;;;;;;34.30;17.97;;;3.40;99.90;;;;;;5113754;27;20501;-71
2022/12/03 01:48:37;;;;;;;33.53;18.33;;;3.40;99.90;;;;;;5104986;27;20072;-71
2022/12/03 01:51:03;;;;;;;30.50;17.43;;;3.40;99.90;;;;;;5109143;27;20103;-71
2022/12/03 01:53:28;;;;;;;33.67;18.03;;;3.40;99.90;;;;;;5111683;27;20082;-70
2022/12/03 01:55:54;;;;;;;32.10;16.97;;;3.40;99.90;;;;;;5108864;27;20039;-71
2022/12/03 01:58:25;;;;;;;33.43;18.47;;;3.50;99.90;;;;;;5109909;27;20032;-71
2022/12/03 02:00:51;;;;;;;32.00;17.27;;;3.50;99.90;;;;;;5113124;27;20059;-71
2022/12/03 02:03:24;;;;;;;31.80;17.17;;;3.50;99.90;;;;;;5094015;28;20044;-71
2022/12/03 02:05:50;;;;;;;32.87;18.20;;;3.50;99.90;;;;;;5109934;27;20067;-70
2022/12/03 02:08:33;;;;;;;32.63;17.97;;;3.50;99.90;;;;;;5108069;27;20039;-70
2022/12/03 02:11:13;;;;;;;33.97;18.67;;;3.50;99.90;;;;;;5109504;27;20035;-71
2022/12/03 02:13:39;;;;;;;36.17;18.67;;;3.50;99.90;;;;;;5090704;28;20046;-71
2022/12/03 02:16:05;;;;;;;30.73;17.17;;;3.50;99.90;;;;;;5097181;28;20040;-71
2022/12/03 02:18:30;;;;;;;32.73;17.83;;;3.50;99.90;;;;;;5078795;27;20043;-71
2022/12/03 02:21:19;;;;;;;30.90;17.83;;;3.50;99.90;;;;;;5090057;28;20061;-71
2022/12/03 02:24:23;;;;;;;30.70;17.60;;;3.50;99.90;;;;;;5110992;27;20109;-71
2022/12/03 02:26:48;;;;;;;31.27;17.43;;;3.50;99.90;;;;;;5101888;27;20051;-71
2022/12/03 02:29:14;;;;;;;31.80;17.73;;;3.50;99.90;;;;;;5109935;27;20093;-70
2022/12/03 02:31:42;;;;;;;34.50;18.03;;;3.50;99.90;;;;;;5106901;27;20056;-71
2022/12/03 02:34:09;;;;;;;31.70;17.50;;;3.50;99.90;;;;;;5098493;28;20071;-71
2022/12/03 02:36:35;;;;;;;33.37;18.03;;;3.60;99.90;;;;;;5107735;28;20040;-70
2022/12/03 02:39:01;;;;;;;33.17;18.80;;;3.60;99.90;;;;;;5111717;27;20052;-71
2022/12/03 02:44:25;;;;;;;30.00;17.70;;;3.50;99.90;;;;;;5064697;27;20036;-71
2022/12/03 02:46:51;;;;;;;31.83;17.30;;;3.50;99.90;;;;;;5106812;27;20036;-71
2022/12/03 02:49:17;;;;;;;31.63;17.63;;;3.50;99.90;;;;;;5091506;28;20047;-71
2022/12/03 02:51:42;;;;;;;36.20;18.57;;;3.50;99.90;;;;;;5076258;28;20403;-71
2022/12/03 02:54:08;;;;;;;31.03;18.07;;;3.50;99.90;;;;;;5114175;27;20031;-71
2022/12/03 02:56:34;;;;;;;32.60;18.50;;;3.60;99.90;;;;;;5089804;28;20038;-71
2022/12/03 02:59:03;;;;;;;34.97;18.80;;;3.50;99.90;;;;;;5107720;27;20615;-70
2022/12/03 03:01:28;;;;;;;35.00;19.03;;;3.50;99.90;;;;;;5110583;27;20075;-69
2022/12/03 03:03:55;;;;;;;31.73;18.47;;;3.50;99.90;;;;;;5089097;28;20039;-68
2022/12/03 03:06:21;;;;;;;29.10;16.60;;;3.50;99.90;;;;;;5110740;27;20082;-68
2022/12/03 03:08:47;;;;;;;34.70;18.43;;;3.50;99.90;;;;;;5093252;28;20051;-69
2022/12/03 03:11:13;;;;;;;33.67;18.17;;;3.40;99.90;;;;;;5108788;27;20056;-68
2022/12/03 03:13:39;;;;;;;32.83;18.57;;;3.40;99.90;;;;;;5074137;28;20122;-69
2022/12/03 03:16:06;;;;;;;33.37;18.30;;;3.40;99.90;;;;;;5109892;27;20071;-68
2022/12/03 03:18:33;;;;;;;32.47;18.50;;;3.40;99.90;;;;;;5093697;28;20217;-68
2022/12/03 03:20:59;;;;;;;30.60;17.30;;;3.40;99.90;;;;;;5108815;28;20049;-69
2022/12/03 03:23:25;;;;;;;30.27;16.57;;;3.30;99.90;;;;;;5108684;27;20092;-68
2022/12/03 03:26:07;;;;;;;30.80;16.73;;;3.30;99.90;;;;;;5092759;28;20178;-71
2022/12/03 03:28:37;;;;;;;29.98;17.48;;;3.30;99.90;;;;;;5108909;28;20048;-71
2022/12/03 03:31:05;;;;;;;31.53;17.80;;;3.20;99.90;;;;;;5089463;28;20114;-70
2022/12/03 03:33:31;;;;;;;31.37;18.17;;;3.20;99.90;;;;;;5089937;28;20051;-70
2022/12/03 03:35:59;;;;;;;33.20;18.20;;;3.20;99.90;;;;;;5110780;28;20049;-71
2022/12/03 03:38:25;;;;;;;32.80;17.33;;;3.20;99.90;;;;;;5108194;28;20039;-71
2022/12/03 03:40:52;;;;;;;28.73;17.53;;;3.20;99.90;;;;;;5090229;28;20050;-71
2022/12/03 03:43:21;;;;;;;30.33;16.53;;;3.20;99.90;;;;;;5105890;28;20044;-71
2022/12/03 03:45:47;;;;;;;31.83;17.33;;;3.20;99.90;;;;;;5107519;28;20526;-70
2022/12/03 03:48:13;;;;;;;34.47;17.03;;;3.20;99.90;;;;;;5110340;28;20048;-71
2022/12/03 03:50:40;;;;;;;31.23;17.83;;;3.10;99.90;;;;;;5110093;28;20444;-71
2022/12/03 03:53:06;;;;;;;32.63;18.80;;;3.20;99.90;;;;;;5090306;28;20059;-70
2022/12/03 03:55:33;;;;;;;32.03;18.30;;;3.10;99.90;;;;;;5109694;28;20083;-71
2022/12/03 03:57:59;;;;;;;32.87;18.03;;;3.10;99.90;;;;;;5108511;28;20096;-71
2022/12/03 04:00:25;;;;;;;30.70;17.10;;;3.10;99.90;;;;;;5089734;28;20111;-71
2022/12/03 04:02:52;;;;;;;29.87;17.07;;;3.10;99.90;;;;;;5107108;28;20051;-71
2022/12/03 04:05:20;;;;;;;30.80;17.53;;;3.10;99.90;;;;;;5091024;28;20036;-70
2022/12/03 04:07:46;;;;;;;30.83;16.90;;;3.10;99.90;;;;;;5060712;28;20194;-70
2022/12/03 04:12:58;;;;;;;32.07;18.00;;;3.10;99.90;;;;;;5106508;28;20040;-71
2022/12/03 04:15:24;;;;;;;31.17;17.03;;;3.10;99.90;;;;;;5093651;28;20032;-71
2022/12/03 04:18:41;;;;;;;32.57;18.30;;;3.10;99.90;;;;;;5106658;28;20047;-71
2022/12/03 04:20:36;;;;;;;32.17;17.40;;;3.10;99.90;;;;;;5110814;28;20039;-71
2022/12/03 04:23:03;;;;;;;30.27;17.33;;;3.10;99.90;;;;;;5108339;28;20100;-71
2022/12/03 04:30:57;;;;;;;30.87;18.03;;;3.10;99.90;;;;;;5105849;28;20478;-70
2022/12/03 04:36:07;;;;;;;30.57;17.50;;;3.10;99.90;;;;;;5104471;28;20044;-71
2022/12/03 04:38:33;;;;;;;33.73;17.23;;;3.10;99.90;;;;;;5093589;28;20075;-71
2022/12/03 04:41:02;;;;;;;33.30;18.27;;;3.10;99.90;;;;;;5077359;28;20040;-71
2022/12/03 04:43:33;;;;;;;32.63;17.87;;;3.10;99.90;;;;;;5110089;27;20126;-71
2022/12/03 04:46:00;;;;;;;33.53;17.63;;;3.10;99.90;;;;;;5113585;27;20101;-71
2022/12/03 04:48:26;;;;;;;32.27;17.90;;;3.10;99.90;;;;;;5113668;27;20036;-71
2022/12/03 04:50:52;;;;;;;32.33;17.73;;;3.10;99.90;;;;;;5117676;27;20367;-71
2022/12/03 04:53:18;;;;;;;31.93;17.57;;;3.10;99.90;;;;;;5112297;27;20036;-72
2022/12/03 04:55:44;;;;;;;31.50;17.73;;;3.10;99.90;;;;;;5108341;27;20067;-71
2022/12/03 04:58:09;;;;;;;32.53;18.60;;;3.10;99.90;;;;;;5104996;27;20516;-71
2022/12/03 05:00:35;;;;;;;30.57;16.73;;;3.10;99.90;;;;;;5108440;27;20043;-70
2022/12/03 05:03:01;;;;;;;30.57;17.40;;;3.10;99.90;;;;;;5100043;27;20047;-71
2022/12/03 05:05:27;;;;;;;30.93;17.57;;;3.10;99.90;;;;;;5109322;27;20055;-71
2022/12/03 05:07:52;;;;;;;29.37;16.60;;;3.10;99.90;;;;;;5113999;27;20202;-71
2022/12/03 05:10:18;;;;;;;31.13;17.47;;;3.10;99.90;;;;;;5092013;28;20066;-71
2022/12/03 05:12:44;;;;;;;30.37;17.40;;;3.10;99.90;;;;;;5093584;28;20047;-70
2022/12/03 05:15:09;;;;;;;28.87;17.37;;;3.10;99.90;;;;;;5096447;27;20051;-71
2022/12/03 05:17:35;;;;;;;32.23;17.90;;;3.10;99.90;;;;;;5108748;27;20061;-70
2022/12/03 05:22:45;;;;;;;26.83;16.03;;;3.10;99.90;;;;;;5110830;27;20494;-71
2022/12/03 05:25:11;;;;;;;33.80;17.87;;;3.10;99.90;;;;;;5103927;27;20043;-71
2022/12/03 05:27:36;;;;;;;29.50;17.10;;;3.10;99.90;;;;;;5111593;27;20035;-70
2022/12/03 05:30:03;;;;;;;29.87;16.83;;;3.00;99.90;;;;;;5114265;27;20046;-71
2022/12/03 05:32:28;;;;;;;30.73;17.93;;;3.00;99.90;;;;;;5113464;27;20066;-71
2022/12/03 05:34:54;;;;;;;30.27;17.93;;;3.00;99.90;;;;;;5077221;28;20087;-71
2022/12/03 05:37:20;;;;;;;27.97;16.50;;;3.00;99.90;;;;;;5114427;27;20036;-70
2022/12/03 05:39:45;;;;;;;27.33;17.87;;;3.00;99.90;;;;;;5110835;27;20062;-70
2022/12/03 05:44:55;;;;;;;30.73;18.37;;;3.00;99.90;;;;;;5094386;27;20048;-70
2022/12/03 05:47:21;;;;;;;32.20;17.97;;;3.00;99.90;;;;;;5110597;27;20047;-71
2022/12/03 05:49:46;;;;;;;31.93;17.60;;;3.00;99.90;;;;;;5107017;28;20074;-71
2022/12/03 05:52:12;;;;;;;31.37;17.40;;;3.00;99.90;;;;;;5092980;28;20081;-69
2022/12/03 05:54:38;;;;;;;28.50;16.43;;;2.90;99.90;;;;;;5114041;27;20526;-69
2022/12/03 05:57:03;;;;;;;29.53;16.77;;;2.90;99.90;;;;;;5108551;27;20215;-69
2022/12/03 05:59:29;;;;;;;31.87;17.53;;;2.90;99.90;;;;;;5117084;27;20089;-71
2022/12/03 06:01:55;;;;;;;33.90;17.33;;;2.90;99.90;;;;;;5127527;27;20153;-71
2022/12/03 06:04:20;;;;;;;34.53;17.37;;;2.90;99.90;;;;;;5109996;27;20140;-70
2022/12/03 06:06:46;;;;;;;31.20;17.87;;;2.90;99.90;;;;;;5077708;28;20074;-71
2022/12/03 06:09:12;;;;;;;30.33;17.13;;;2.90;99.90;;;;;;5110141;27;20036;-71
2022/12/03 06:11:39;;;;;;;30.90;17.43;;;2.90;99.90;;;;;;5112604;27;20059;-70
2022/12/03 06:14:04;;;;;;;30.77;17.67;;;2.90;99.90;;;;;;5097499;28;20027;-70
2022/12/03 06:16:30;;;;;;;32.47;17.80;;;2.90;99.90;;;;;;5135194;27;20115;-71
2022/12/03 06:18:56;;;;;;;33.03;18.40;;;2.80;99.90;;;;;;5118860;27;20114;-70
2022/12/03 06:21:22;;;;;;;32.60;18.13;;;2.90;99.90;;;;;;5115057;27;20103;-71
2022/12/03 06:23:48;;;;;;;34.30;18.23;;;2.90;99.90;;;;;;5108443;27;20063;-71
2022/12/03 06:26:14;;;;;;;29.37;17.87;;;2.80;99.90;;;;;;5101512;27;20090;-69
2022/12/03 06:28:45;;;;;;;32.33;18.40;;;2.90;99.90;;;;;;5107515;27;20043;-70
2022/12/03 06:31:11;;;;;;;30.73;17.00;;;2.80;99.90;;;;;;5105844;27;20039;-69
2022/12/03 06:33:37;;;;;;;27.70;16.73;;;2.80;99.90;;;;;;5093352;28;20040;-70
2022/12/03 06:36:03;;;;;;;31.97;17.37;;;2.80;99.90;;;;;;5111300;27;20503;-69
2022/12/03 06:38:29;;;;;;;29.90;17.37;;;2.80;99.90;;;;;;5109749;27;20133;-70
2022/12/03 06:40:54;;;;;;;32.13;17.73;;;2.80;99.90;;;;;;5111842;27;20561;-70
2022/12/03 06:43:20;;;;;;;33.20;16.60;;;2.80;99.90;;;;;;5108974;27;20035;-69
2022/12/03 06:45:46;;;;;;;32.17;17.10;;;2.80;99.90;;;;;;5093437;28;20052;-70
2022/12/03 06:48:11;;;;;;;30.43;16.17;;;2.80;99.90;;;;;;5110581;27;20039;-70
2022/12/03 06:50:37;;;;;;;30.13;16.70;;;2.70;99.90;;;;;;5114323;27;20070;-70
2022/12/03 06:53:03;;;;;;;30.70;16.60;;;2.70;99.90;;;;;;5106546;27;20044;-69
2022/12/03 06:55:28;;;;;;;35.17;17.83;;;2.70;99.90;;;;;;5096009;27;20035;-70
2022/12/03 06:57:54;;;;;;;31.87;17.77;;;2.70;99.90;;;;;;5112027;27;20051;-70
2022/12/03 07:00:20;;;;;;;33.13;18.50;;;2.60;99.90;;;;;;5109075;27;20076;-70
2022/12/03 07:02:46;;;;;;;32.33;17.27;;;2.60;99.90;;;;;;5112119;27;20048;-69
2022/12/03 07:05:11;;;;;;;29.97;16.33;;;2.60;99.90;;;;;;5092757;28;20139;-69
2022/12/03 07:07:37;;;;;;;32.83;17.57;;;2.60;99.90;;;;;;5077769;28;20039;-70
2022/12/03 07:10:03;;;;;;;31.70;16.70;;;2.60;99.90;;;;;;5114915;27;20554;-70
2022/12/03 07:12:29;;;;;;;31.77;17.60;;;2.60;99.90;;;;;;5090825;27;20039;-69
2022/12/03 07:14:55;;;;;;;33.10;17.70;;;2.60;99.90;;;;;;5110049;27;20306;-69
2022/12/03 07:17:20;;;;;;;34.60;18.80;;;2.50;99.90;;;;;;5107753;27;20044;-70
2022/12/03 07:19:46;;;;;;;35.23;18.70;;;2.50;99.90;;;;;;5107385;27;20116;-69
2022/12/03 07:22:12;;;;;;;37.13;17.87;;;2.50;99.90;;;;;;5107727;27;20036;-70
2022/12/03 07:24:38;;;;;;;34.37;18.53;;;2.50;99.90;;;;;;5111799;27;20113;-69
2022/12/03 07:27:03;;;;;;;36.60;18.90;;;2.50;99.90;;;;;;5090976;28;20040;-70
2022/12/03 07:29:29;;;;;;;36.03;18.67;;;2.50;99.90;;;;;;5081321;27;20043;-71
2022/12/03 07:31:55;;;;;;;37.70;19.47;;;2.50;99.90;;;;;;5113339;28;20417;-70
2022/12/03 07:34:20;;;;;;;39.37;19.33;;;2.40;99.90;;;;;;5117342;28;20108;-70
2022/12/03 07:36:46;;;;;;;37.87;19.77;;;2.40;99.90;;;;;;5135675;27;20062;-69
2022/12/03 07:39:12;;;;;;;38.50;19.40;;;2.40;99.90;;;;;;5129386;28;20482;-69
2022/12/03 07:41:38;;;;;;;37.17;18.97;;;2.40;99.90;;;;;;5118428;28;20092;-69
2022/12/03 07:44:04;;;;;;;37.33;19.37;;;2.30;99.90;;;;;;5134456;28;20043;-69
2022/12/03 07:46:29;;;;;;;37.10;20.10;;;2.30;99.90;;;;;;5113035;28;20055;-69
2022/12/03 07:48:55;;;;;;;39.10;19.93;;;2.30;99.90;;;;;;5130789;28;20102;-69
2022/12/03 07:51:21;;;;;;;38.40;19.90;;;2.30;99.90;;;;;;5135919;28;20039;-69
2022/12/03 07:53:47;;;;;;;41.27;21.27;;;2.30;99.90;;;;;;5121354;28;20039;-70
2022/12/03 07:56:12;;;;;;;38.93;20.40;;;2.30;99.90;;;;;;5116956;28;20041;-69
2022/12/03 07:58:38;;;;;;;40.67;20.70;;;2.30;99.90;;;;;;5137251;28;20098;-69
2022/12/03 08:01:04;;;;;;;41.27;21.00;;;2.30;99.90;;;;;;5111160;28;20047;-70
2022/12/03 08:03:29;;;;;;;46.53;22.27;;;2.30;99.90;;;;;;5103269;28;20432;-69
2022/12/03 08:05:55;;;;;;;41.63;20.87;;;2.30;99.90;;;;;;5103754;28;20086;-69
2022/12/03 08:08:21;;;;;;;42.37;21.53;;;2.30;99.90;;;;;;5078293;28;20461;-69
2022/12/03 08:10:46;;;;;;;41.70;21.10;;;2.30;99.90;;;;;;5087598;28;20047;-69
2022/12/03 08:13:14;;;;;;;42.93;21.03;;;2.30;99.90;;;;;;5116405;27;20243;-69
2022/12/03 08:15:40;;;;;;;41.87;21.10;;;2.30;99.90;;;;;;5112132;27;20047;-70
2022/12/03 08:18:16;;;;;;;42.83;22.13;;;2.30;99.90;;;;;;5111839;27;20039;-70
2022/12/03 08:20:43;;;;;;;42.00;21.60;;;2.30;99.90;;;;;;5112190;27;20035;-69
2022/12/03 08:23:13;;;;;;;44.33;22.80;;;2.30;99.90;;;;;;5117489;27;20438;-69
2022/12/03 08:25:39;;;;;;;43.10;22.50;;;2.20;99.90;;;;;;5138516;27;20047;-69
2022/12/03 08:28:12;;;;;;;42.83;22.70;;;2.20;99.90;;;;;;5140879;27;20104;-70
2022/12/03 08:30:40;;;;;;;44.97;22.43;;;2.20;99.90;;;;;;5109854;27;20392;-69
2022/12/03 08:33:35;;;;;;;43.10;21.43;;;2.20;99.90;;;;;;5127218;27;20047;-69
2022/12/03 08:36:10;;;;;;;44.23;21.70;;;2.20;99.90;;;;;;5127266;27;20058;-69
2022/12/03 08:38:36;;;;;;;41.27;21.20;;;2.20;99.90;;;;;;5114996;27;20076;-69
2022/12/03 08:41:02;;;;;;;46.23;21.53;;;2.20;99.90;;;;;;5128992;27;20047;-70
2022/12/03 08:43:31;;;;;;;48.43;22.87;;;2.20;99.90;;;;;;5113777;27;20043;-69
2022/12/03 08:45:56;;;;;;;42.70;22.10;;;2.20;99.90;;;;;;5128903;27;20142;-69
2022/12/03 08:48:28;;;;;;;43.70;22.53;;;2.20;99.90;;;;;;5139326;27;20340;-70
2022/12/03 08:50:57;;;;;;;46.80;22.85;;;2.20;99.90;;;;;;5138233;27;20039;-70
2022/12/03 08:53:29;;;;;;;46.03;22.17;;;2.20;99.90;;;;;;5139906;27;20107;-68
2022/12/03 08:55:59;;;;;;;46.05;22.88;;;2.20;99.90;;;;;;5127706;27;20055;-69
2022/12/03 08:58:31;;;;;;;51.27;25.33;;;2.30;99.90;;;;;;5138990;27;20047;-68
2022/12/03 09:01:04;;;;;;;51.42;27.33;;;2.30;99.90;;;;;;5136985;27;20077;-69
2022/12/03 09:03:31;;;;;;;49.37;25.87;;;2.30;99.90;;;;;;5114064;27;20079;-68
2022/12/03 09:05:57;;;;;;;49.70;25.73;;;2.40;99.90;;;;;;5134223;27;20035;-68
2022/12/03 09:08:22;;;;;;;50.37;26.37;;;2.40;99.90;;;;;;5113680;27;20481;-68
2022/12/03 09:10:48;;;;;;;52.40;25.97;;;2.40;99.90;;;;;;5121380;27;20125;-69
2022/12/03 09:13:14;;;;;;;50.80;25.67;;;2.40;99.90;;;;;;5136994;27;20083;-68
2022/12/03 09:15:39;;;;;;;52.17;26.13;;;2.40;99.90;;;;;;5138912;27;20043;-69
2022/12/03 09:18:05;;;;;;;49.23;26.10;;;2.50;99.90;;;;;;5102860;27;20103;-69
2022/12/03 09:20:31;;;;;;;50.20;26.00;;;2.50;99.90;;;;;;5129098;27;20043;-68
2022/12/03 09:22:56;;;;;;;49.17;25.40;;;2.40;99.90;;;;;;5137124;27;20135;-71
2022/12/03 09:25:22;;;;;;;51.13;26.10;;;2.40;99.90;;;;;;5120318;27;20055;-69
2022/12/03 09:27:48;;;;;;;44.67;25.33;;;2.50;99.90;;;;;;5129562;27;20357;-69
2022/12/03 09:30:14;;;;;;;52.07;26.07;;;2.40;99.90;;;;;;5118531;27;20036;-69
2022/12/03 09:32:40;;;;;;;51.87;26.47;;;2.40;99.90;;;;;;5110139;27;20039;-69
2022/12/03 09:35:07;;;;;;;52.60;26.17;;;2.40;99.90;;;;;;5136530;27;20142;-69
2022/12/03 09:37:32;;;;;;;50.30;26.17;;;2.50;99.90;;;;;;5118091;27;20043;-69
2022/12/03 09:39:58;;;;;;;51.23;26.17;;;2.40;99.90;;;;;;5136829;27;20131;-68
2022/12/03 09:42:24;;;;;;;51.33;25.70;;;2.50;99.90;;;;;;5119994;27;20134;-69
2022/12/03 09:44:51;;;;;;;50.93;25.40;;;2.50;99.90;;;;;;5127398;27;20102;-70
2022/12/03 09:47:17;;;;;;;51.33;24.87;;;2.50;99.90;;;;;;5136415;27;20528;-70
2022/12/03 09:49:43;;;;;;;52.90;25.37;;;2.50;99.90;;;;;;5139284;27;20112;-70
2022/12/03 09:52:13;;;;;;;49.37;24.83;;;2.50;99.90;;;;;;5132023;27;20370;-69
2022/12/03 09:54:38;;;;;;;50.87;26.73;;;2.50;99.90;;;;;;5123228;27;20378;-70
2022/12/03 09:57:06;;;;;;;55.33;27.23;;;2.50;99.90;;;;;;5137798;27;20082;-69
2022/12/03 09:59:33;;;;;;;47.40;24.83;;;2.50;99.90;;;;;;5094783;28;20051;-70
2022/12/03 10:02:00;;;;;;;48.30;24.53;;;2.50;99.90;;;;;;5132032;27;20417;-69
2022/12/03 10:04:27;;;;;;;48.33;24.80;;;2.50;99.90;;;;;;5136190;27;20067;-70
2022/12/03 10:06:54;;;;;;;50.80;26.03;;;2.50;99.90;;;;;;5137690;27;20051;-69
2022/12/03 10:09:26;;;;;;;50.30;25.90;;;2.40;99.90;;;;;;5135482;27;20055;-69
2022/12/03 10:11:52;;;;;;;48.75;25.90;;;2.40;99.90;;;;;;5137695;27;20115;-70
2022/12/03 10:14:19;;;;;;;48.50;25.67;;;2.30;99.90;;;;;;5116741;27;20430;-70
2022/12/03 10:16:45;;;;;;;53.53;26.97;;;2.30;99.90;;;;;;5138322;27;20066;-70
2022/12/03 10:19:23;;;;;;;54.90;26.90;;;2.30;99.90;;;;;;5137080;27;20046;-70
2022/12/03 10:21:49;;;;;;;52.90;25.43;;;2.30;99.90;;;;;;5118183;27;20057;-70
2022/12/03 10:24:33;;;;;;;53.77;25.80;;;2.30;99.90;;;;;;5138958;27;20070;-70
2022/12/03 10:27:01;;;;;;;53.10;27.50;;;2.30;99.90;;;;;;5131093;27;20051;-70
2022/12/03 10:29:33;;;;;;;54.57;26.80;;;2.30;99.90;;;;;;5137953;27;20047;-68
2022/12/03 10:32:02;;;;;;;49.38;26.88;;;2.30;99.90;;;;;;5129133;27;20471;-69
2022/12/03 10:34:31;;;;;;;51.60;26.20;;;2.30;99.90;;;;;;5135803;27;20057;-70
2022/12/03 10:37:08;;;;;;;48.63;26.00;;;2.30;99.90;;;;;;5138248;27;20233;-70
2022/12/03 10:39:58;;;;;;;54.77;26.63;;;2.30;99.90;;;;;;5135360;27;20043;-70
2022/12/03 10:42:26;;;;;;;55.00;27.07;;;2.30;99.90;;;;;;5113390;27;20050;-70
2022/12/03 10:45:15;;;;;;;50.10;26.17;;;2.30;99.90;;;;;;5130670;27;20451;-70
2022/12/03 10:48:11;;;;;;;57.17;27.40;;;2.20;99.90;;;;;;5136460;27;20526;-71
2022/12/03 10:50:44;;;;;;;53.87;28.10;;;2.30;99.90;;;;;;5117722;27;20046;-70
2022/12/03 10:53:11;;;;;;;55.83;28.57;;;2.20;99.90;;;;;;5104642;27;20078;-70
2022/12/03 10:55:39;;;;;;;60.77;28.63;;;2.10;99.90;;;;;;5109856;27;20110;-68
2022/12/03 10:58:11;;;;;;;55.33;28.27;;;2.10;99.90;;;;;;5107227;27;20066;-68
2022/12/03 11:00:37;;;;;;;57.00;28.30;;;2.10;99.90;;;;;;5129580;27;20035;-69
2022/12/03 11:03:02;;;;;;;54.33;27.17;;;2.10;99.90;;;;;;5112795;28;20119;-68
2022/12/03 11:05:28;;;;;;;51.43;27.27;;;2.00;99.90;;;;;;5117528;27;20111;-68
2022/12/03 11:07:55;;;;;;;58.63;28.60;;;2.00;99.90;;;;;;5135764;27;20050;-69
2022/12/03 11:10:20;;;;;;;54.03;27.37;;;2.00;99.90;;;;;;5135496;27;20084;-69
2022/12/03 11:13:24;;;;;;;52.20;28.07;;;2.00;99.90;;;;;;5134957;27;20039;-68
2022/12/03 11:15:50;;;;;;;58.60;28.77;;;2.00;99.90;;;;;;5137313;27;20089;-69
2022/12/03 11:18:34;;;;;;;54.53;28.17;;;2.00;99.90;;;;;;5123481;27;20039;-69
2022/12/03 11:21:04;;;;;;;55.97;28.73;;;2.00;99.90;;;;;;5135454;27;20039;-70
2022/12/03 11:23:45;;;;;;;53.33;27.00;;;2.00;99.90;;;;;;5119479;27;20498;-69
2022/12/03 11:26:17;;;;;;;53.00;27.03;;;2.00;99.90;;;;;;5134701;27;20051;-69
2022/12/03 11:28:45;;;;;;;53.85;27.23;;;2.00;99.90;;;;;;5132719;27;20886;-69
2022/12/03 11:31:35;;;;;;;56.70;29.23;;;2.00;99.90;;;;;;5134823;27;20059;-69
2022/12/03 11:34:19;;;;;;;55.60;26.93;;;2.00;99.90;;;;;;5114725;27;20054;-69
2022/12/03 11:37:21;;;;;;;55.90;28.60;;;2.00;99.90;;;;;;5137283;27;20047;-69
2022/12/03 11:39:50;;;;;;;;;;;2.00;99.90;;;;;;5136533;27;20078;-69
2022/12/03 11:42:24;;;;;;;55.10;28.77;;;2.00;99.90;;;;;;5098227;28;19920;-69
2022/12/03 11:45:07;;;;;;;53.83;28.10;;;2.00;99.90;;;;;;5122258;28;20055;-69
2022/12/03 11:47:43;;;;;;;56.13;28.87;;;2.10;99.90;;;;;;5126809;27;20051;-69
2022/12/03 11:50:33;;;;;;;56.87;28.73;;;2.10;99.90;;;;;;5141678;27;20331;-70
2022/12/03 11:53:07;;;;;;;61.37;28.50;;;2.10;99.90;;;;;;5122434;27;20051;-69
2022/12/03 11:55:43;;;;;;;57.97;29.10;;;2.10;99.90;;;;;;5130523;27;20172;-69
2022/12/03 11:58:25;;;;;;;58.90;29.47;;;2.10;99.90;;;;;;5122657;27;20054;-70
2022/12/03 12:00:54;;;;;;;58.13;30.17;;;2.10;99.90;;;;;;5112157;27;20051;-70
2022/12/03 12:03:25;;;;;;;57.73;28.10;;;2.10;99.90;;;;;;5139585;27;20066;-70
2022/12/03 12:06:11;;;;;;;58.35;29.92;;;2.20;99.90;;;;;;5110764;27;20057;-69
2022/12/03 12:08:50;;;;;;;57.03;28.00;;;2.20;99.90;;;;;;5136202;27;20043;-70
2022/12/03 12:11:26;;;;;;;52.17;27.63;;;2.30;99.90;;;;;;5111988;27;20456;-70
2022/12/03 12:14:02;;;;;;;54.83;27.40;;;2.40;99.90;;;;;;5138142;27;20050;-70
2022/12/03 12:16:50;;;;;;;52.43;27.30;;;2.40;99.90;;;;;;5140457;27;20550;-70
2022/12/03 12:19:30;;;;;;;50.70;25.93;;;2.50;99.90;;;;;;5112874;27;20544;-69
2022/12/03 12:22:27;;;;;;;50.33;26.73;;;2.60;99.90;;;;;;5102389;27;20044;-70
2022/12/03 12:24:55;;;;;;;52.90;26.87;;;2.70;99.90;;;;;;5126096;27;20058;-70
2022/12/03 12:27:22;;;;;;;52.43;27.03;;;2.80;99.90;;;;;;5110424;27;20130;-69
2022/12/03 12:29:54;;;;;;;53.30;27.43;;;2.80;99.90;;;;;;5138367;27;20053;-70
2022/12/03 12:32:29;;;;;;;51.65;26.90;;;2.80;99.90;;;;;;5112981;28;20054;-70
2022/12/03 12:35:17;;;;;;;49.57;26.20;;;2.80;99.90;;;;;;5098795;27;20608;-70
2022/12/03 12:37:58;;;;;;;47.67;26.77;;;2.70;99.90;;;;;;5138428;27;20039;-69
2022/12/03 12:40:28;;;;;;;48.67;26.92;;;2.60;99.90;;;;;;5121495;27;20043;-69
2022/12/03 12:42:56;;;;;;;48.70;25.63;;;2.50;99.90;;;;;;5139141;27;20043;-70
2022/12/03 12:45:32;;;;;;;46.80;24.60;;;2.50;99.90;;;;;;5138675;27;20054;-70
2022/12/03 12:48:13;;;;;;;47.70;25.83;;;2.40;99.90;;;;;;5137147;27;20055;-70
2022/12/03 12:50:41;;;;;;;47.97;25.90;;;2.40;99.90;;;;;;5138237;27;20132;-70
2022/12/03 12:53:22;;;;;;;52.70;27.10;;;2.40;99.90;;;;;;5121089;27;20043;-70
2022/12/03 12:55:55;;;;;;;47.40;25.27;;;2.40;99.90;;;;;;5137302;27;20047;-70
2022/12/03 12:58:21;;;;;;;48.87;24.70;;;2.40;99.90;;;;;;5121618;27;20083;-69
2022/12/03 13:00:57;;;;;;;49.07;26.00;;;2.50;99.90;;;;;;5135900;27;20570;-69
2022/12/03 13:03:27;;;;;;;47.37;25.40;;;2.60;99.90;;;;;;5090772;28;20051;-70
2022/12/03 13:05:55;;;;;;;45.00;23.93;;;2.70;99.90;;;;;;5093252;27;20051;-70
2022/12/03 13:08:27;;;;;;;44.03;24.10;;;2.70;99.90;;;;;;5120317;27;20066;-70